Time;durP1;ratioP1;P1;durP2;ratioP2;P2;SDS_P1;SDS_P2;PMS_P1;PMS_P2;Temp;Humidity;BMP_temperature;BMP_pressure;BME280_temperature;BME280_humidity;BME280_pressure;Samples;Min_cycle;Max_cycle;Signal;HPM_P1;HPM_P2
2022/05/05 00:01:07;;;;;;;;;16.25;13.00;;;;;;;;5100417;27;51094;-45
2022/05/05 00:03:51;;;;;;;;;13.75;12.75;;;;;;;;5100591;27;51175;-45
2022/05/05 00:06:37;;;;;;;;;17.25;11.25;;;;;;;;5100487;27;51512;-45
2022/05/05 00:09:21;;;;;;;;;14.75;14.75;;;;;;;;5084571;27;51112;-46
2022/05/05 00:15:14;;;;;;;;;14.00;14.00;;;;;;;;5099265;27;51185;-46
2022/05/05 00:18:10;;;;;;;;;14.50;12.50;;;;;;;;5098659;27;51481;-48
2022/05/05 00:20:55;;;;;;;;;14.50;12.25;;;;;;;;5100191;27;51157;-45
2022/05/05 00:23:39;;;;;;;;;15.50;14.75;;;;;;;;5099337;27;51114;-46
2022/05/05 00:26:26;;;;;;;;;13.75;12.50;;;;;;;;5099953;27;51132;-45
2022/05/05 00:29:11;;;;;;;;;20.75;15.25;;;;;;;;5099470;27;51091;-45
2022/05/05 00:32:01;;;;;;;;;15.50;11.25;;;;;;;;5099691;27;51174;-45
2022/05/05 00:34:45;;;;;;;;;13.75;10.75;;;;;;;;5099446;27;51309;-47
2022/05/05 00:37:30;;;;;;;;;10.00;10.00;;;;;;;;5100376;27;51164;-45
2022/05/05 00:40:15;;;;;;;;;6.75;5.75;;;;;;;;5104379;27;51140;-45
2022/05/05 00:43:02;;;;;;;;;8.00;6.25;;;;;;;;5104310;27;51278;-45
2022/05/05 00:45:46;;;;;;;;;7.00;7.00;;;;;;;;5103793;27;51140;-45
2022/05/05 00:48:31;;;;;;;;;9.25;8.00;;;;;;;;5104405;27;51214;-46
2022/05/05 00:51:15;;;;;;;;;9.25;9.25;;;;;;;;5103902;27;51466;-46
2022/05/05 00:54:00;;;;;;;;;9.50;8.75;;;;;;;;5103983;27;51095;-45
2022/05/05 00:56:46;;;;;;;;;8.25;8.25;;;;;;;;5103428;27;51160;-45
2022/05/05 00:59:31;;;;;;;;;8.00;8.00;;;;;;;;5103977;27;51071;-46
2022/05/05 01:02:18;;;;;;;;;13.25;7.00;;;;;;;;5102868;27;51080;-45
2022/05/05 01:07:49;;;;;;;;;12.75;8.75;;;;;;;;5044693;28;51101;-45
2022/05/05 01:10:33;;;;;;;;;7.75;6.25;;;;;;;;5046932;28;51196;-46
2022/05/05 01:13:18;;;;;;;;;10.50;9.00;;;;;;;;5044721;28;51520;-46
2022/05/05 01:16:04;;;;;;;;;8.50;8.50;;;;;;;;5058170;28;51440;-45
2022/05/05 01:18:51;;;;;;;;;8.00;6.00;;;;;;;;5060077;28;51723;-46
2022/05/05 01:21:37;;;;;;;;;9.25;8.75;;;;;;;;5060457;28;51261;-47
2022/05/05 01:30:30;;;;;;;;;15.00;9.75;;;;;;;;5040090;28;51246;-47
2022/05/05 01:33:15;;;;;;;;;7.50;7.00;;;;;;;;5039464;28;51783;-46
2022/05/05 01:36:00;;;;;;;;;10.50;7.50;;;;;;;;5039486;28;51205;-46
2022/05/05 01:38:46;;;;;;;;;10.25;7.25;;;;;;;;5053165;28;51203;-46
2022/05/05 01:41:36;;;;;;;;;16.00;12.75;;;;;;;;5057789;28;51250;-45
2022/05/05 01:44:20;;;;;;;;;17.00;13.75;;;;;;;;5065840;27;51173;-48
2022/05/05 01:47:07;;;;;;;;;13.25;11.25;;;;;;;;5103393;27;51067;-46
2022/05/05 01:49:56;;;;;;;;;13.25;11.00;;;;;;;;5102253;27;50984;-45
2022/05/05 01:52:43;;;;;;;;;17.25;11.00;;;;;;;;5102543;27;51098;-46
2022/05/05 01:55:37;;;;;;;;;10.25;9.25;;;;;;;;5102874;27;51235;-46
2022/05/05 01:58:27;;;;;;;;;10.75;10.00;;;;;;;;5102614;27;52634;-46
2022/05/05 02:01:23;;;;;;;;;9.00;7.00;;;;;;;;5102760;27;51214;-45
2022/05/05 02:04:10;;;;;;;;;9.50;8.50;;;;;;;;5103227;27;51078;-45
2022/05/05 02:06:55;;;;;;;;;13.00;9.50;;;;;;;;5101738;27;51422;-45
2022/05/05 02:09:39;;;;;;;;;8.00;8.00;;;;;;;;5102497;27;51233;-46
2022/05/05 02:12:24;;;;;;;;;14.00;10.50;;;;;;;;5102177;27;51437;-45
2022/05/05 02:15:12;;;;;;;;;6.75;6.75;;;;;;;;5102950;27;51156;-46
2022/05/05 02:17:57;;;;;;;;;8.00;8.00;;;;;;;;5101640;27;51350;-46
2022/05/05 02:20:42;;;;;;;;;9.50;8.00;;;;;;;;5101924;27;51156;-45
2022/05/05 02:23:26;;;;;;;;;10.75;8.00;;;;;;;;5102046;27;51179;-45
2022/05/05 02:26:11;;;;;;;;;8.00;8.00;;;;;;;;5101110;27;51268;-45
2022/05/05 02:28:57;;;;;;;;;4.00;4.00;;;;;;;;5102020;27;51150;-45
2022/05/05 02:31:42;;;;;;;;;9.50;7.50;;;;;;;;5101051;27;51576;-46
2022/05/05 02:34:28;;;;;;;;;6.75;6.75;;;;;;;;5100317;27;51228;-46
2022/05/05 02:40:15;;;;;;;;;13.25;8.25;;;;;;;;5101171;27;51133;-47
2022/05/05 02:43:03;;;;;;;;;12.75;9.00;;;;;;;;5100644;27;51569;-48
2022/05/05 02:45:47;;;;;;;;;9.25;9.00;;;;;;;;5099591;27;51420;-44
2022/05/05 02:48:31;;;;;;;;;9.50;9.50;;;;;;;;5099901;27;51093;-45
2022/05/05 02:51:17;;;;;;;;;10.75;9.00;;;;;;;;5099710;27;51141;-46
2022/05/05 02:57:05;;;;;;;;;11.50;8.75;;;;;;;;5100278;27;51400;-45
2022/05/05 02:59:50;;;;;;;;;8.75;8.75;;;;;;;;5101237;27;51144;-45
2022/05/05 03:02:42;;;;;;;;;7.25;7.25;;;;;;;;5100843;27;51368;-46
2022/05/05 03:05:36;;;;;;;;;9.50;8.75;;;;;;;;5101934;27;51200;-45
2022/05/05 03:08:20;;;;;;;;;13.75;9.75;;;;;;;;5101553;27;51193;-45
2022/05/05 03:11:05;;;;;;;;;10.00;9.25;;;;;;;;5100816;27;51125;-45
2022/05/05 03:13:49;;;;;;;;;10.00;10.00;;;;;;;;5101133;27;51222;-46
2022/05/05 03:16:35;;;;;;;;;12.00;9.50;;;;;;;;5100544;27;51193;-46
2022/05/05 03:19:19;;;;;;;;;8.25;8.00;;;;;;;;5101247;27;51003;-46
2022/05/05 03:22:04;;;;;;;;;15.25;13.00;;;;;;;;5100510;27;51199;-45
2022/05/05 03:24:51;;;;;;;;;11.50;9.75;;;;;;;;5101230;27;51072;-47
2022/05/05 03:27:36;;;;;;;;;13.00;10.25;;;;;;;;5101039;27;51633;-45
2022/05/05 03:30:20;;;;;;;;;9.00;8.50;;;;;;;;5100483;27;51228;-45
2022/05/05 03:33:05;;;;;;;;;13.25;10.00;;;;;;;;5100064;27;51337;-46
2022/05/05 03:35:50;;;;;;;;;11.25;9.25;;;;;;;;5101176;27;52454;-46
2022/05/05 03:38:37;;;;;;;;;10.50;8.25;;;;;;;;5101135;27;51175;-46
2022/05/05 03:41:22;;;;;;;;;12.75;11.00;;;;;;;;5100953;27;51182;-46
2022/05/05 03:44:07;;;;;;;;;12.00;11.25;;;;;;;;5100938;27;51014;-47
2022/05/05 03:46:51;;;;;;;;;13.25;11.50;;;;;;;;5100426;27;51245;-46
2022/05/05 03:49:37;;;;;;;;;10.25;10.00;;;;;;;;5100620;27;51122;-47
2022/05/05 03:52:21;;;;;;;;;17.00;12.75;;;;;;;;5100642;27;51019;-46
2022/05/05 03:55:07;;;;;;;;;16.00;11.00;;;;;;;;5100662;27;51133;-47
2022/05/05 03:57:51;;;;;;;;;14.25;14.25;;;;;;;;5099824;27;51180;-46
2022/05/05 04:00:37;;;;;;;;;14.25;12.75;;;;;;;;5100371;27;51177;-45
2022/05/05 04:03:31;;;;;;;;;15.75;14.50;;;;;;;;5099784;27;51216;-45
2022/05/05 04:06:19;;;;;;;;;15.00;13.25;;;;;;;;5099794;27;51239;-46
2022/05/05 04:09:05;;;;;;;;;12.75;10.75;;;;;;;;5100721;27;51093;-45
2022/05/05 04:11:49;;;;;;;;;12.25;10.75;;;;;;;;5100383;27;51552;-47
2022/05/05 04:14:46;;;;;;;;;10.75;10.25;;;;;;;;5100146;27;51268;-46
2022/05/05 04:17:30;;;;;;;;;11.50;10.50;;;;;;;;5099301;27;51519;-47
2022/05/05 04:20:15;;;;;;;;;10.25;10.25;;;;;;;;5099457;27;52017;-45
2022/05/05 04:23:01;;;;;;;;;14.00;12.75;;;;;;;;5099910;27;51315;-44
2022/05/05 04:25:47;;;;;;;;;13.00;12.50;;;;;;;;5100487;27;51112;-46
2022/05/05 04:28:32;;;;;;;;;13.75;13.75;;;;;;;;5099296;27;51008;-45
2022/05/05 04:31:17;;;;;;;;;22.25;13.75;;;;;;;;5097947;27;51125;-45
2022/05/05 04:34:03;;;;;;;;;35.50;30.75;;;;;;;;5098102;27;51043;-46
2022/05/05 04:36:50;;;;;;;;;24.50;23.75;;;;;;;;5098097;27;51536;-47
2022/05/05 04:39:34;;;;;;;;;36.75;30.50;;;;;;;;5098004;27;51178;-50
2022/05/05 04:42:18;;;;;;;;;22.00;17.25;;;;;;;;5098174;27;51051;-49
2022/05/05 04:45:03;;;;;;;;;19.25;19.00;;;;;;;;5098701;27;51067;-45
2022/05/05 04:47:48;;;;;;;;;19.50;16.75;;;;;;;;5099926;27;53018;-48
2022/05/05 04:50:33;;;;;;;;;17.25;15.75;;;;;;;;5098688;27;51344;-48
2022/05/05 04:53:18;;;;;;;;;16.25;14.50;;;;;;;;5099846;27;51113;-49
2022/05/05 04:56:03;;;;;;;;;18.00;16.25;;;;;;;;5099365;27;51144;-46
2022/05/05 04:58:47;;;;;;;;;14.25;14.25;;;;;;;;5099951;27;51220;-48
2022/05/05 05:01:32;;;;;;;;;19.25;15.25;;;;;;;;5098965;27;51091;-45
2022/05/05 05:04:22;;;;;;;;;15.50;15.25;;;;;;;;5099149;27;51111;-47
2022/05/05 05:07:06;;;;;;;;;18.25;15.75;;;;;;;;5097735;27;51106;-47
2022/05/05 05:09:52;;;;;;;;;19.75;15.00;;;;;;;;5099727;27;51156;-47
2022/05/05 05:12:38;;;;;;;;;19.75;17.75;;;;;;;;5099128;27;51107;-49
2022/05/05 05:15:22;;;;;;;;;23.25;21.00;;;;;;;;5099475;27;51478;-47
2022/05/05 05:18:07;;;;;;;;;22.00;19.00;;;;;;;;5093829;27;51150;-49
2022/05/05 05:20:52;;;;;;;;;24.50;21.75;;;;;;;;5099140;27;51179;-48
2022/05/05 05:23:36;;;;;;;;;20.50;19.25;;;;;;;;5099750;27;51116;-50
2022/05/05 05:26:21;;;;;;;;;31.75;25.25;;;;;;;;5098997;27;51570;-48
2022/05/05 05:29:06;;;;;;;;;35.00;31.75;;;;;;;;5103423;27;51723;-48
2022/05/05 05:31:51;;;;;;;;;39.50;32.00;;;;;;;;5099702;27;51184;-46
2022/05/05 05:34:35;;;;;;;;;35.75;30.50;;;;;;;;5092046;27;51231;-50
2022/05/05 05:37:19;;;;;;;;;40.75;34.00;;;;;;;;5093564;27;51194;-48
2022/05/05 05:40:04;;;;;;;;;34.25;30.00;;;;;;;;5093113;27;51231;-48
2022/05/05 05:42:48;;;;;;;;;36.50;32.00;;;;;;;;5077452;27;51661;-51
2022/05/05 05:45:33;;;;;;;;;32.25;30.75;;;;;;;;5096410;27;51116;-48
2022/05/05 05:48:17;;;;;;;;;35.00;30.00;;;;;;;;5095497;27;51396;-47
2022/05/05 05:51:01;;;;;;;;;38.00;32.75;;;;;;;;5094194;27;51277;-49
2022/05/05 05:53:46;;;;;;;;;31.25;27.75;;;;;;;;5095404;27;51331;-46
2022/05/05 05:56:31;;;;;;;;;38.75;32.50;;;;;;;;5092271;27;51166;-47
2022/05/05 05:59:15;;;;;;;;;24.50;22.25;;;;;;;;5096741;27;51106;-50
2022/05/05 06:05:03;;;;;;;;;31.75;26.50;;;;;;;;5102607;27;51018;-47
2022/05/05 06:07:48;;;;;;;;;28.50;25.75;;;;;;;;5102632;27;51169;-50
2022/05/05 06:10:32;;;;;;;;;26.25;23.00;;;;;;;;5102243;27;51110;-50
2022/05/05 06:13:18;;;;;;;;;25.25;22.00;;;;;;;;5098009;27;50996;-48
2022/05/05 06:16:04;;;;;;;;;25.50;23.50;;;;;;;;5102445;27;51032;-47
2022/05/05 06:18:49;;;;;;;;;44.00;34.50;;;;;;;;5102397;27;51064;-47
2022/05/05 06:21:35;;;;;;;;;25.75;24.00;;;;;;;;5102285;27;51167;-47
2022/05/05 06:24:20;;;;;;;;;43.25;35.25;;;;;;;;5102468;27;51023;-48
2022/05/05 06:27:05;;;;;;;;;43.50;36.00;;;;;;;;5102116;27;53416;-46
2022/05/05 06:29:50;;;;;;;;;34.25;29.75;;;;;;;;5096459;27;51503;-47
2022/05/05 06:32:36;;;;;;;;;34.75;30.00;;;;;;;;5101516;27;51043;-48
2022/05/05 06:35:21;;;;;;;;;34.50;27.75;;;;;;;;5101718;27;51127;-48
2022/05/05 06:38:06;;;;;;;;;23.50;19.50;;;;;;;;5102481;27;51106;-47
2022/05/05 06:40:50;;;;;;;;;24.00;20.00;;;;;;;;5101609;27;51820;-47
2022/05/05 06:43:36;;;;;;;;;20.25;19.50;;;;;;;;5088198;27;51297;-46
2022/05/05 06:46:21;;;;;;;;;18.50;16.50;;;;;;;;5096818;27;51168;-49
2022/05/05 06:49:05;;;;;;;;;21.50;20.50;;;;;;;;5101570;27;51106;-48
2022/05/05 06:51:51;;;;;;;;;22.50;18.25;;;;;;;;5101111;27;50995;-48
2022/05/05 06:54:36;;;;;;;;;20.50;17.50;;;;;;;;5100156;27;51094;-46
2022/05/05 06:57:27;;;;;;;;;18.75;16.25;;;;;;;;5101724;27;51169;-48
2022/05/05 07:00:13;;;;;;;;;27.50;23.25;;;;;;;;5101314;27;51165;-48
2022/05/05 07:02:58;;;;;;;;;18.00;18.00;;;;;;;;5101025;27;51079;-47
2022/05/05 07:05:53;;;;;;;;;22.50;19.75;;;;;;;;5099538;27;51659;-49
2022/05/05 07:11:41;;;;;;;;;22.00;19.75;;;;;;;;5100669;27;51146;-46
2022/05/05 07:14:31;;;;;;;;;23.25;23.25;;;;;;;;5100826;27;51063;-47
2022/05/05 07:17:17;;;;;;;;;26.25;23.00;;;;;;;;5100171;27;51555;-46
2022/05/05 07:20:08;;;;;;;;;25.00;24.75;;;;;;;;5100608;27;51187;-50
2022/05/05 07:23:00;;;;;;;;;26.25;25.00;;;;;;;;5100969;27;51522;-48
2022/05/05 07:25:46;;;;;;;;;47.00;37.75;;;;;;;;5098115;27;51406;-47
2022/05/05 07:28:30;;;;;;;;;58.25;43.75;;;;;;;;5100148;27;51195;-46
2022/05/05 07:31:14;;;;;;;;;27.75;27.00;;;;;;;;5089271;27;51157;-48
2022/05/05 07:33:59;;;;;;;;;26.00;23.00;;;;;;;;5099225;27;51085;-48
2022/05/05 07:36:44;;;;;;;;;24.25;22.00;;;;;;;;5098871;27;51169;-47
2022/05/05 07:39:37;;;;;;;;;23.00;22.00;;;;;;;;5100438;27;51106;-47
2022/05/05 07:42:22;;;;;;;;;23.50;21.00;;;;;;;;5099552;27;51232;-47
2022/05/05 07:45:08;;;;;;;;;19.00;16.50;;;;;;;;5099725;27;51155;-46
2022/05/05 07:47:52;;;;;;;;;19.25;16.75;;;;;;;;5099053;27;51569;-46
2022/05/05 07:50:38;;;;;;;;;28.75;18.50;;;;;;;;5100277;27;51102;-47
2022/05/05 07:53:23;;;;;;;;;24.00;20.50;;;;;;;;5094772;27;51119;-47
2022/05/05 07:56:09;;;;;;;;;24.75;18.50;;;;;;;;5098560;27;51457;-47
2022/05/05 07:58:59;;;;;;;;;23.50;21.75;;;;;;;;5099716;27;51127;-49
2022/05/05 08:01:43;;;;;;;;;26.00;21.75;;;;;;;;5099768;27;51117;-48
2022/05/05 08:04:27;;;;;;;;;28.00;25.50;;;;;;;;5100232;27;51342;-48
2022/05/05 08:07:12;;;;;;;;;23.25;21.00;;;;;;;;5098483;27;51994;-46
2022/05/05 08:09:59;;;;;;;;;22.25;19.50;;;;;;;;5098998;27;51362;-46
2022/05/05 08:12:47;;;;;;;;;22.00;18.25;;;;;;;;5100159;27;51467;-46
2022/05/05 08:15:32;;;;;;;;;21.00;19.00;;;;;;;;5091830;27;51146;-47
2022/05/05 08:18:19;;;;;;;;;14.00;12.00;;;;;;;;5087742;27;51101;-48
2022/05/05 08:21:10;;;;;;;;;19.25;18.25;;;;;;;;5090918;27;51247;-47
2022/05/05 08:30:05;;;;;;;;;22.50;18.25;;;;;;;;5094915;27;51152;-48
2022/05/05 08:32:52;;;;;;;;;25.00;21.50;;;;;;;;5098374;27;51418;-46
2022/05/05 08:35:36;;;;;;;;;22.00;18.00;;;;;;;;5098752;27;51120;-48
2022/05/05 08:38:20;;;;;;;;;24.50;18.50;;;;;;;;5099227;27;51107;-47
2022/05/05 08:41:11;;;;;;;;;20.75;19.00;;;;;;;;5099711;27;51195;-48
2022/05/05 08:43:56;;;;;;;;;18.50;15.50;;;;;;;;5096108;27;51078;-48
2022/05/05 08:46:45;;;;;;;;;17.75;14.75;;;;;;;;5095698;27;51263;-47
2022/05/05 08:49:31;;;;;;;;;17.75;15.25;;;;;;;;5098632;27;51574;-50
2022/05/05 08:52:19;;;;;;;;;17.00;16.25;;;;;;;;5096759;27;51154;-46
2022/05/05 08:55:04;;;;;;;;;19.50;17.00;;;;;;;;5099713;27;51204;-47
2022/05/05 08:57:49;;;;;;;;;20.75;19.50;;;;;;;;5098144;27;51072;-49
2022/05/05 09:00:34;;;;;;;;;17.00;17.00;;;;;;;;5085513;27;51089;-46
2022/05/05 09:03:46;;;;;;;;;18.75;17.25;;;;;;;;5103150;27;51155;-47
2022/05/05 09:07:00;;;;;;;;;20.50;16.75;;;;;;;;5094281;27;51127;-46
2022/05/05 09:09:56;;;;;;;;;20.75;17.00;;;;;;;;5095129;27;51042;-46
2022/05/05 09:12:42;;;;;;;;;23.75;20.25;;;;;;;;5103220;27;51074;-50
2022/05/05 09:15:33;;;;;;;;;19.75;18.50;;;;;;;;5101923;27;51296;-48
2022/05/05 09:18:20;;;;;;;;;20.25;18.00;;;;;;;;5101641;27;51375;-48
2022/05/05 09:21:05;;;;;;;;;18.00;16.75;;;;;;;;5103451;27;51109;-47
2022/05/05 09:26:55;;;;;;;;;31.25;27.75;;;;;;;;5100161;27;51145;-47
2022/05/05 09:29:42;;;;;;;;;33.75;30.25;;;;;;;;5102728;27;51172;-46
2022/05/05 09:32:31;;;;;;;;;24.50;21.75;;;;;;;;5102868;27;51344;-48
2022/05/05 09:35:18;;;;;;;;;24.75;21.75;;;;;;;;5103334;27;51087;-47
2022/05/05 09:38:03;;;;;;;;;29.25;25.75;;;;;;;;5086041;27;51114;-48
2022/05/05 09:41:02;;;;;;;;;24.25;21.25;;;;;;;;5102717;27;51131;-48
2022/05/05 09:43:47;;;;;;;;;22.75;18.75;;;;;;;;5102556;27;50999;-47
2022/05/05 09:46:31;;;;;;;;;22.00;20.25;;;;;;;;5098401;27;51228;-47
2022/05/05 09:49:16;;;;;;;;;25.50;20.75;;;;;;;;5102424;27;51123;-47
2022/05/05 09:58:12;;;;;;;;;16.25;13.25;;;;;;;;5100272;27;51156;-48
2022/05/05 10:00:59;;;;;;;;;12.25;12.00;;;;;;;;5102834;27;50988;-47
2022/05/05 10:04:05;;;;;;;;;18.25;12.75;;;;;;;;5101105;27;51160;-49
2022/05/05 10:06:50;;;;;;;;;15.50;10.50;;;;;;;;5100657;27;51019;-50
2022/05/05 10:09:35;;;;;;;;;14.50;12.75;;;;;;;;5102303;27;51197;-47
2022/05/05 10:12:30;;;;;;;;;15.25;13.00;;;;;;;;5102921;27;51044;-49
2022/05/05 10:15:15;;;;;;;;;18.75;13.00;;;;;;;;5100074;27;51359;-48
2022/05/05 10:18:03;;;;;;;;;14.25;13.50;;;;;;;;5102372;27;51213;-48
2022/05/05 10:20:49;;;;;;;;;16.75;12.75;;;;;;;;5101980;27;51087;-49
2022/05/05 10:23:53;;;;;;;;;13.25;11.75;;;;;;;;5101316;27;51043;-48
2022/05/05 10:26:37;;;;;;;;;12.50;8.00;;;;;;;;5093952;27;51058;-48
2022/05/05 10:29:30;;;;;;;;;18.00;12.50;;;;;;;;5098227;27;52428;-48
2022/05/05 10:32:19;;;;;;;;;16.75;12.75;;;;;;;;5101000;27;51472;-48
2022/05/05 10:35:12;;;;;;;;;13.25;10.50;;;;;;;;5096409;27;51158;-49
2022/05/05 10:37:57;;;;;;;;;20.50;16.25;;;;;;;;5101727;27;51125;-47
2022/05/05 10:40:44;;;;;;;;;11.00;10.00;;;;;;;;5098763;27;51043;-48
2022/05/05 10:43:34;;;;;;;;;13.00;12.50;;;;;;;;5101985;27;51381;-51
2022/05/05 10:46:36;;;;;;;;;11.25;11.25;;;;;;;;5101660;27;51474;-52
2022/05/05 10:49:41;;;;;;;;;18.00;15.00;;;;;;;;5101208;27;51172;-49
2022/05/05 10:52:29;;;;;;;;;16.00;13.25;;;;;;;;5097437;27;51148;-46
2022/05/05 10:55:32;;;;;;;;;16.25;14.00;;;;;;;;5092431;27;51140;-49
2022/05/05 10:58:42;;;;;;;;;13.75;12.25;;;;;;;;5101488;27;51412;-47
2022/05/05 11:01:27;;;;;;;;;19.00;14.25;;;;;;;;5100983;27;51116;-49
2022/05/05 11:04:33;;;;;;;;;15.00;10.75;;;;;;;;5100958;27;51120;-49
2022/05/05 11:07:30;;;;;;;;;16.50;11.25;;;;;;;;5098721;27;51548;-48
2022/05/05 11:10:33;;;;;;;;;17.00;15.00;;;;;;;;5099436;27;51145;-47
2022/05/05 11:13:37;;;;;;;;;13.50;13.50;;;;;;;;5093926;27;51424;-50
2022/05/05 11:22:41;;;;;;;;;14.25;13.00;;;;;;;;5100125;27;51511;-48
2022/05/05 11:25:25;;;;;;;;;17.25;14.00;;;;;;;;5097437;27;51032;-48
2022/05/05 11:28:11;;;;;;;;;18.25;14.50;;;;;;;;5095772;27;51384;-47
2022/05/05 11:31:03;;;;;;;;;12.75;12.75;;;;;;;;5101557;27;51089;-50
2022/05/05 11:33:52;;;;;;;;;16.00;14.75;;;;;;;;5098062;27;51438;-47
2022/05/05 11:36:41;;;;;;;;;14.00;10.50;;;;;;;;5098908;27;51100;-47
2022/05/05 11:39:25;;;;;;;;;16.50;14.75;;;;;;;;5099308;27;51425;-48
2022/05/05 11:42:11;;;;;;;;;13.25;12.00;;;;;;;;5100152;27;51172;-50
2022/05/05 11:44:55;;;;;;;;;16.50;15.75;;;;;;;;5098886;27;51136;-48
2022/05/05 11:47:42;;;;;;;;;18.75;15.50;;;;;;;;5100584;27;51374;-48
2022/05/05 11:50:26;;;;;;;;;13.00;13.00;;;;;;;;5100318;27;51427;-49
2022/05/05 11:53:19;;;;;;;;;14.00;14.00;;;;;;;;5094364;27;51198;-50
2022/05/05 11:56:07;;;;;;;;;19.00;15.50;;;;;;;;5094606;27;51087;-46
2022/05/05 12:02:01;;;;;;;;;18.25;17.75;;;;;;;;5096794;27;51169;-47
2022/05/05 12:04:49;;;;;;;;;18.00;18.00;;;;;;;;5100188;27;51608;-49
2022/05/05 12:07:34;;;;;;;;;22.50;16.75;;;;;;;;5100304;27;51141;-46
2022/05/05 12:10:19;;;;;;;;;17.00;13.00;;;;;;;;5100314;27;51078;-48
2022/05/05 12:13:05;;;;;;;;;17.25;15.50;;;;;;;;5096451;27;51143;-48
2022/05/05 12:15:55;;;;;;;;;18.25;15.50;;;;;;;;5093001;27;51456;-47
2022/05/05 12:18:54;;;;;;;;;13.00;12.00;;;;;;;;5099534;27;51094;-48
2022/05/05 12:21:51;;;;;;;;;14.75;12.25;;;;;;;;5100138;27;51101;-46
2022/05/05 12:24:36;;;;;;;;;13.75;8.00;;;;;;;;5098793;27;51146;-48
2022/05/05 12:27:27;;;;;;;;;19.75;14.25;;;;;;;;5097896;27;51118;-48
2022/05/05 12:30:34;;;;;;;;;19.00;14.75;;;;;;;;5099634;27;51216;-48
2022/05/05 12:33:18;;;;;;;;;10.00;9.25;;;;;;;;5092593;27;51146;-50
2022/05/05 12:36:14;;;;;;;;;14.25;10.00;;;;;;;;5104359;27;51153;-49
2022/05/05 12:39:13;;;;;;;;;11.50;10.75;;;;;;;;5098391;27;51075;-48
2022/05/05 12:42:02;;;;;;;;;13.25;11.75;;;;;;;;5103920;27;51397;-46
2022/05/05 12:44:49;;;;;;;;;15.75;15.75;;;;;;;;5103469;27;51180;-49
2022/05/05 12:47:40;;;;;;;;;13.00;12.00;;;;;;;;5104239;27;51069;-49
2022/05/05 12:50:34;;;;;;;;;14.50;11.50;;;;;;;;5080331;27;51594;-47
2022/05/05 12:59:46;;;;;;;;;13.00;10.50;;;;;;;;5091855;27;51194;-46
2022/05/05 13:02:35;;;;;;;;;12.75;10.50;;;;;;;;5093431;27;51234;-50
2022/05/05 13:05:20;;;;;;;;;12.75;9.75;;;;;;;;5091598;27;51237;-50
2022/05/05 13:08:04;;;;;;;;;13.50;11.00;;;;;;;;5094234;27;51075;-51
2022/05/05 13:10:49;;;;;;;;;16.00;11.00;;;;;;;;5097213;27;51201;-53
2022/05/05 13:13:35;;;;;;;;;11.75;11.00;;;;;;;;5094469;27;51253;-48
2022/05/05 13:16:20;;;;;;;;;9.00;6.75;;;;;;;;5091991;27;51727;-48
2022/05/05 13:19:06;;;;;;;;;12.75;10.25;;;;;;;;5093545;27;51662;-49
2022/05/05 13:21:50;;;;;;;;;7.00;7.00;;;;;;;;5095304;27;51005;-48
2022/05/05 13:24:35;;;;;;;;;9.25;8.25;;;;;;;;5095683;27;51316;-45
2022/05/05 13:27:19;;;;;;;;;13.75;7.00;;;;;;;;5095690;27;51117;-47
2022/05/05 13:30:05;;;;;;;;;6.25;6.25;;;;;;;;5091486;27;51078;-47
2022/05/05 13:32:55;;;;;;;;;6.25;5.50;;;;;;;;5093640;27;51324;-46
2022/05/05 13:35:39;;;;;;;;;10.00;6.25;;;;;;;;5090804;27;51110;-46
2022/05/05 13:38:24;;;;;;;;;6.25;6.25;;;;;;;;5092052;27;51068;-49
2022/05/05 13:41:12;;;;;;;;;9.00;7.50;;;;;;;;5098663;27;51344;-46
2022/05/05 13:43:56;;;;;;;;;10.25;7.50;;;;;;;;5084057;27;51479;-48
2022/05/05 13:46:40;;;;;;;;;7.75;6.00;;;;;;;;5095623;27;51245;-47
2022/05/05 13:49:27;;;;;;;;;16.25;11.50;;;;;;;;5094543;27;51190;-49
2022/05/05 13:52:12;;;;;;;;;7.50;6.00;;;;;;;;5089882;27;51243;-49
2022/05/05 13:54:56;;;;;;;;;5.50;5.25;;;;;;;;5092712;27;51167;-49
2022/05/05 13:57:45;;;;;;;;;4.75;4.00;;;;;;;;5098065;27;51115;-47
2022/05/05 14:00:40;;;;;;;;;5.75;3.25;;;;;;;;5098122;27;51172;-47
2022/05/05 14:03:28;;;;;;;;;6.00;3.75;;;;;;;;5096040;27;51191;-47
2022/05/05 14:06:12;;;;;;;;;5.00;4.00;;;;;;;;5091871;27;51426;-50
2022/05/05 14:12:12;;;;;;;;;8.00;4.75;;;;;;;;5096746;27;51090;-47
2022/05/05 14:14:56;;;;;;;;;4.25;4.00;;;;;;;;5093971;27;51376;-47
2022/05/05 14:17:41;;;;;;;;;5.25;5.00;;;;;;;;5091303;27;51176;-48
2022/05/05 14:20:30;;;;;;;;;6.00;5.00;;;;;;;;5091808;27;51197;-47
2022/05/05 14:23:16;;;;;;;;;9.50;6.00;;;;;;;;5093810;27;51407;-49
2022/05/05 14:26:02;;;;;;;;;8.75;6.25;;;;;;;;5096458;27;51479;-49
2022/05/05 14:28:49;;;;;;;;;7.00;3.50;;;;;;;;5092785;27;51327;-47
2022/05/05 14:31:33;;;;;;;;;4.75;4.00;;;;;;;;5099997;27;51168;-46
2022/05/05 14:34:17;;;;;;;;;4.25;4.25;;;;;;;;5096350;27;51142;-44
2022/05/05 14:37:05;;;;;;;;;4.00;2.75;;;;;;;;5097766;27;51308;-48
2022/05/05 14:39:50;;;;;;;;;5.25;2.75;;;;;;;;5094772;27;51013;-47
2022/05/05 14:42:35;;;;;;;;;5.25;4.00;;;;;;;;5088496;27;51337;-45
2022/05/05 14:45:19;;;;;;;;;5.00;5.00;;;;;;;;5089220;27;51516;-45
2022/05/05 14:48:04;;;;;;;;;2.75;2.75;;;;;;;;5091061;27;51227;-47
2022/05/05 14:50:49;;;;;;;;;5.75;4.75;;;;;;;;5090486;27;51252;-46
2022/05/05 14:53:34;;;;;;;;;8.00;6.50;;;;;;;;5095371;27;51147;-45
2022/05/05 14:56:20;;;;;;;;;5.50;4.25;;;;;;;;5087632;27;51405;-46
2022/05/05 14:59:06;;;;;;;;;5.00;4.25;;;;;;;;5093076;27;51194;-45
2022/05/05 15:01:51;;;;;;;;;7.25;4.00;;;;;;;;5091123;27;51206;-46
2022/05/05 15:04:35;;;;;;;;;3.75;3.75;;;;;;;;5080407;27;51190;-45
2022/05/05 15:07:21;;;;;;;;;5.00;4.00;;;;;;;;5091284;27;51120;-46
2022/05/05 15:10:05;;;;;;;;;5.25;4.50;;;;;;;;5094569;27;51481;-44
2022/05/05 15:12:51;;;;;;;;;5.25;4.50;;;;;;;;5096761;27;51468;-47
2022/05/05 15:15:36;;;;;;;;;4.25;3.00;;;;;;;;5094696;27;51204;-45
2022/05/05 15:18:21;;;;;;;;;6.00;3.25;;;;;;;;5089324;27;51220;-46
2022/05/05 15:21:06;;;;;;;;;7.75;4.75;;;;;;;;5100137;27;51460;-45
2022/05/05 15:23:52;;;;;;;;;3.25;3.00;;;;;;;;5081980;27;51224;-46
2022/05/05 15:26:38;;;;;;;;;4.50;4.00;;;;;;;;5098408;27;51189;-47
2022/05/05 15:29:25;;;;;;;;;9.50;5.00;;;;;;;;5095743;27;51150;-45
2022/05/05 15:32:12;;;;;;;;;4.00;4.00;;;;;;;;5096841;27;51326;-46
2022/05/05 15:35:03;;;;;;;;;7.00;4.75;;;;;;;;5096218;27;51141;-45
2022/05/05 15:37:50;;;;;;;;;4.25;4.00;;;;;;;;5097483;27;51106;-45
2022/05/05 15:40:36;;;;;;;;;7.00;5.75;;;;;;;;5092919;27;51366;-45
2022/05/05 15:43:20;;;;;;;;;9.50;7.25;;;;;;;;5093814;27;51118;-45
2022/05/05 15:46:05;;;;;;;;;7.00;4.00;;;;;;;;5096403;27;51149;-47
2022/05/05 15:48:50;;;;;;;;;8.00;5.50;;;;;;;;5095274;27;51243;-49
2022/05/05 15:51:35;;;;;;;;;8.50;5.75;;;;;;;;5090565;27;51384;-45
2022/05/05 15:54:23;;;;;;;;;4.00;3.00;;;;;;;;5097005;27;51274;-46
2022/05/05 15:57:07;;;;;;;;;4.50;4.50;;;;;;;;5098235;27;51574;-48
2022/05/05 15:59:52;;;;;;;;;10.00;7.00;;;;;;;;5090639;27;51449;-47
2022/05/05 16:02:42;;;;;;;;;4.00;4.00;;;;;;;;5093056;27;51320;-46
2022/05/05 16:05:27;;;;;;;;;13.50;8.50;;;;;;;;5099501;27;51074;-45
2022/05/05 16:08:14;;;;;;;;;3.00;2.75;;;;;;;;5099618;27;51105;-45
2022/05/05 16:10:59;;;;;;;;;6.00;3.50;;;;;;;;5096751;27;51364;-45
2022/05/05 16:13:45;;;;;;;;;4.25;4.25;;;;;;;;5099809;27;51143;-46
2022/05/05 16:16:29;;;;;;;;;6.75;5.75;;;;;;;;5099615;27;51281;-48
2022/05/05 16:19:13;;;;;;;;;6.00;5.00;;;;;;;;5094206;27;51090;-45
2022/05/05 17:05:46;;;;;;;;;4.25;3.00;;;;;;;;4297928;32;51188;-52
2022/05/05 17:08:30;;;;;;;;;4.00;4.00;;;;;;;;5044991;28;51192;-51
2022/05/05 17:11:16;;;;;;;;;5.25;3.50;;;;;;;;5052568;28;51475;-49
2022/05/05 17:14:00;;;;;;;;;8.00;5.25;;;;;;;;5051595;28;51422;-51
2022/05/05 17:16:44;;;;;;;;;5.00;5.00;;;;;;;;5041952;28;51389;-46
2022/05/05 17:19:29;;;;;;;;;3.75;3.75;;;;;;;;5048051;28;51120;-52
2022/05/05 17:22:13;;;;;;;;;4.25;2.00;;;;;;;;5048340;27;51479;-50
2022/05/05 17:24:57;;;;;;;;;3.25;2.00;;;;;;;;5051726;28;51136;-50
2022/05/05 17:27:41;;;;;;;;;4.00;3.25;;;;;;;;5051189;28;51467;-47
2022/05/05 17:30:28;;;;;;;;;6.00;3.75;;;;;;;;5051206;28;51048;-51
2022/05/05 17:33:12;;;;;;;;;3.25;3.25;;;;;;;;5051796;28;51166;-51
2022/05/05 17:35:56;;;;;;;;;4.75;4.75;;;;;;;;5046336;27;51368;-51
2022/05/05 17:38:40;;;;;;;;;6.00;4.75;;;;;;;;5051964;28;51369;-50
2022/05/05 17:41:27;;;;;;;;;4.00;3.00;;;;;;;;5052367;28;51145;-51
2022/05/05 17:50:36;;;;;;;;;7.75;6.25;;;;;;;;5071594;27;51356;-51
2022/05/05 17:53:22;;;;;;;;;4.75;3.75;;;;;;;;5071258;27;51491;-48
2022/05/05 17:56:07;;;;;;;;;4.00;4.00;;;;;;;;5059239;27;51135;-49
2022/05/05 17:58:52;;;;;;;;;8.00;5.50;;;;;;;;5058457;27;51242;-48
2022/05/05 18:01:36;;;;;;;;;11.50;8.50;;;;;;;;5053281;27;51390;-48
2022/05/05 18:04:25;;;;;;;;;11.50;8.00;;;;;;;;5052897;27;51388;-48
2022/05/05 18:07:10;;;;;;;;;5.25;4.25;;;;;;;;5060417;27;51110;-47
2022/05/05 18:09:55;;;;;;;;;3.75;3.00;;;;;;;;5044617;27;51137;-50